Terminal Aerodrome Forecast
Issued by NWS

Home | Current Version | Previous Version | Text Only | Print | Product List | Glossary On
Versions: 1 2 3 4 5 6 7 8 9 10 11 12 13 14 15
276
FTUS46 KMTR 252352 AAA
TAFSNS
TAF AMD
KSNS 252352Z 2600/2624 29014G20KT P6SM FEW025
     FM260200 28011KT P6SM SCT025
     FM260300 28010KT P6SM BKN020
     FM260600 24005KT P6SM OVC015
     FM261500 12006KT P6SM SCT015 OVC025
     FM261900 29007KT P6SM FEW025
     FM262200 28013KT P6SM FEW030=

USA.gov is the U.S. government's official web portal to all federal, state and local government web resources and services.